sensor_id;sensor_type;location;lat;lon;timestamp;P1;durP1;ratioP1;P2;durP2;ratioP2
71771;SDS011;59606;52.138;5.424;2023-11-22T00:02:16;13.43;;;5.68;;
71771;SDS011;59606;52.138;5.424;2023-11-22T00:04:44;16.15;;;5.80;;
71771;SDS011;59606;52.138;5.424;2023-11-22T00:07:10;10.95;;;4.80;;
71771;SDS011;59606;52.138;5.424;2023-11-22T00:09:37;13.63;;;5.70;;
71771;SDS011;59606;52.138;5.424;2023-11-22T00:12:04;13.48;;;5.38;;
71771;SDS011;59606;52.138;5.424;2023-11-22T00:14:30;11.93;;;5.78;;
71771;SDS011;59606;52.138;5.424;2023-11-22T00:16:57;11.35;;;5.40;;
71771;SDS011;59606;52.138;5.424;2023-11-22T00:19:25;12.55;;;6.00;;
71771;SDS011;59606;52.138;5.424;2023-11-22T00:21:51;11.67;;;5.43;;
71771;SDS011;59606;52.138;5.424;2023-11-22T00:24:17;11.77;;;5.07;;
71771;SDS011;59606;52.138;5.424;2023-11-22T00:26:44;12.23;;;4.97;;
71771;SDS011;59606;52.138;5.424;2023-11-22T00:29:11;12.95;;;5.93;;
71771;SDS011;59606;52.138;5.424;2023-11-22T00:31:38;15.43;;;6.50;;
71771;SDS011;59606;52.138;5.424;2023-11-22T00:34:05;11.67;;;6.00;;
71771;SDS011;59606;52.138;5.424;2023-11-22T00:36:32;12.82;;;5.90;;
71771;SDS011;59606;52.138;5.424;2023-11-22T00:39:00;11.52;;;4.82;;
71771;SDS011;59606;52.138;5.424;2023-11-22T00:41:30;14.73;;;5.55;;
71771;SDS011;59606;52.138;5.424;2023-11-22T00:43:58;15.07;;;5.95;;
71771;SDS011;59606;52.138;5.424;2023-11-22T00:46:24;13.30;;;5.13;;
71771;SDS011;59606;52.138;5.424;2023-11-22T00:48:51;11.98;;;5.07;;
71771;SDS011;59606;52.138;5.424;2023-11-22T00:51:17;15.00;;;5.75;;
71771;SDS011;59606;52.138;5.424;2023-11-22T00:53:45;12.13;;;6.13;;
71771;SDS011;59606;52.138;5.424;2023-11-22T00:56:12;14.18;;;6.18;;
71771;SDS011;59606;52.138;5.424;2023-11-22T00:58:39;13.87;;;5.57;;
71771;SDS011;59606;52.138;5.424;2023-11-22T01:01:05;9.65;;;4.88;;
71771;SDS011;59606;52.138;5.424;2023-11-22T01:03:32;13.77;;;5.60;;
71771;SDS011;59606;52.138;5.424;2023-11-22T01:05:58;10.95;;;4.95;;
71771;SDS011;59606;52.138;5.424;2023-11-22T01:08:25;13.07;;;6.47;;
71771;SDS011;59606;52.138;5.424;2023-11-22T01:10:51;12.80;;;5.33;;
71771;SDS011;59606;52.138;5.424;2023-11-22T01:13:18;12.50;;;5.43;;
71771;SDS011;59606;52.138;5.424;2023-11-22T01:15:44;10.93;;;5.22;;
71771;SDS011;59606;52.138;5.424;2023-11-22T01:18:11;15.85;;;5.60;;
71771;SDS011;59606;52.138;5.424;2023-11-22T01:20:37;11.30;;;5.20;;
71771;SDS011;59606;52.138;5.424;2023-11-22T01:23:04;13.10;;;6.20;;
71771;SDS011;59606;52.138;5.424;2023-11-22T01:25:31;14.10;;;5.80;;
71771;SDS011;59606;52.138;5.424;2023-11-22T01:27:57;12.75;;;5.20;;
71771;SDS011;59606;52.138;5.424;2023-11-22T01:30:24;11.45;;;5.50;;
71771;SDS011;59606;52.138;5.424;2023-11-22T01:32:50;11.73;;;5.85;;
71771;SDS011;59606;52.138;5.424;2023-11-22T01:35:17;13.53;;;6.33;;
71771;SDS011;59606;52.138;5.424;2023-11-22T01:37:43;13.52;;;5.78;;
71771;SDS011;59606;52.138;5.424;2023-11-22T01:40:10;12.70;;;5.07;;
71771;SDS011;59606;52.138;5.424;2023-11-22T01:42:37;15.45;;;6.07;;
71771;SDS011;59606;52.138;5.424;2023-11-22T01:45:06;13.82;;;5.68;;
71771;SDS011;59606;52.138;5.424;2023-11-22T01:47:34;14.33;;;5.90;;
71771;SDS011;59606;52.138;5.424;2023-11-22T01:50:01;12.43;;;5.53;;
71771;SDS011;59606;52.138;5.424;2023-11-22T01:52:31;11.93;;;5.50;;
71771;SDS011;59606;52.138;5.424;2023-11-22T01:54:58;14.82;;;5.68;;
71771;SDS011;59606;52.138;5.424;2023-11-22T01:57:31;12.20;;;4.95;;
71771;SDS011;59606;52.138;5.424;2023-11-22T02:00:02;13.80;;;5.43;;
71771;SDS011;59606;52.138;5.424;2023-11-22T02:02:30;11.80;;;5.05;;
71771;SDS011;59606;52.138;5.424;2023-11-22T02:04:58;12.48;;;6.07;;
71771;SDS011;59606;52.138;5.424;2023-11-22T02:07:26;12.75;;;5.13;;
71771;SDS011;59606;52.138;5.424;2023-11-22T02:09:53;11.25;;;4.50;;
71771;SDS011;59606;52.138;5.424;2023-11-22T02:12:20;13.10;;;5.60;;
71771;SDS011;59606;52.138;5.424;2023-11-22T02:14:47;16.17;;;5.72;;
71771;SDS011;59606;52.138;5.424;2023-11-22T02:17:14;15.73;;;6.00;;
71771;SDS011;59606;52.138;5.424;2023-11-22T02:19:43;14.15;;;6.13;;
71771;SDS011;59606;52.138;5.424;2023-11-22T02:22:09;12.75;;;5.38;;
71771;SDS011;59606;52.138;5.424;2023-11-22T02:24:37;13.30;;;6.17;;
71771;SDS011;59606;52.138;5.424;2023-11-22T02:27:03;13.82;;;6.13;;
71771;SDS011;59606;52.138;5.424;2023-11-22T02:29:30;12.93;;;5.85;;
71771;SDS011;59606;52.138;5.424;2023-11-22T02:31:56;13.20;;;5.15;;
71771;SDS011;59606;52.138;5.424;2023-11-22T02:34:23;14.48;;;5.78;;
71771;SDS011;59606;52.138;5.424;2023-11-22T02:36:50;16.60;;;6.43;;
71771;SDS011;59606;52.138;5.424;2023-11-22T02:39:29;13.90;;;5.55;;
71771;SDS011;59606;52.138;5.424;2023-11-22T02:42:07;11.85;;;5.82;;
71771;SDS011;59606;52.138;5.424;2023-11-22T02:44:35;15.45;;;6.18;;
71771;SDS011;59606;52.138;5.424;2023-11-22T02:47:01;12.40;;;5.50;;
71771;SDS011;59606;52.138;5.424;2023-11-22T02:49:28;13.30;;;5.13;;
71771;SDS011;59606;52.138;5.424;2023-11-22T02:51:55;15.95;;;6.03;;
71771;SDS011;59606;52.138;5.424;2023-11-22T02:54:22;12.07;;;4.68;;
71771;SDS011;59606;52.138;5.424;2023-11-22T02:56:48;11.43;;;5.38;;
71771;SDS011;59606;52.138;5.424;2023-11-22T02:59:15;12.38;;;5.15;;
71771;SDS011;59606;52.138;5.424;2023-11-22T03:01:42;15.07;;;6.00;;
71771;SDS011;59606;52.138;5.424;2023-11-22T03:04:09;12.43;;;4.82;;
71771;SDS011;59606;52.138;5.424;2023-11-22T03:06:36;12.20;;;5.25;;
71771;SDS011;59606;52.138;5.424;2023-11-22T03:09:02;17.35;;;5.90;;
71771;SDS011;59606;52.138;5.424;2023-11-22T03:11:30;11.18;;;4.55;;
71771;SDS011;59606;52.138;5.424;2023-11-22T03:13:58;12.00;;;5.37;;
71771;SDS011;59606;52.138;5.424;2023-11-22T03:16:25;12.88;;;5.28;;
71771;SDS011;59606;52.138;5.424;2023-11-22T03:18:52;13.68;;;5.25;;
71771;SDS011;59606;52.138;5.424;2023-11-22T03:21:18;13.80;;;5.35;;
71771;SDS011;59606;52.138;5.424;2023-11-22T03:23:45;13.18;;;6.20;;
71771;SDS011;59606;52.138;5.424;2023-11-22T03:26:11;13.63;;;5.33;;
71771;SDS011;59606;52.138;5.424;2023-11-22T03:28:38;13.80;;;4.90;;
71771;SDS011;59606;52.138;5.424;2023-11-22T03:31:04;11.63;;;5.00;;
71771;SDS011;59606;52.138;5.424;2023-11-22T03:33:34;13.55;;;5.30;;
71771;SDS011;59606;52.138;5.424;2023-11-22T03:36:01;13.57;;;5.05;;
71771;SDS011;59606;52.138;5.424;2023-11-22T03:38:28;13.17;;;5.50;;
71771;SDS011;59606;52.138;5.424;2023-11-22T03:40:54;12.60;;;5.00;;
71771;SDS011;59606;52.138;5.424;2023-11-22T03:43:21;8.52;;;4.38;;
71771;SDS011;59606;52.138;5.424;2023-11-22T03:45:48;9.93;;;4.47;;
71771;SDS011;59606;52.138;5.424;2023-11-22T03:48:14;14.93;;;5.47;;
71771;SDS011;59606;52.138;5.424;2023-11-22T03:50:41;13.67;;;5.03;;
71771;SDS011;59606;52.138;5.424;2023-11-22T03:53:08;11.85;;;4.82;;
71771;SDS011;59606;52.138;5.424;2023-11-22T03:55:34;14.65;;;5.78;;
71771;SDS011;59606;52.138;5.424;2023-11-22T03:58:01;12.70;;;5.22;;
71771;SDS011;59606;52.138;5.424;2023-11-22T04:00:27;11.63;;;4.88;;
71771;SDS011;59606;52.138;5.424;2023-11-22T04:02:54;10.00;;;4.63;;
71771;SDS011;59606;52.138;5.424;2023-11-22T04:05:23;12.63;;;5.07;;
71771;SDS011;59606;52.138;5.424;2023-11-22T04:07:49;14.13;;;5.70;;
71771;SDS011;59606;52.138;5.424;2023-11-22T04:10:17;12.52;;;5.35;;
71771;SDS011;59606;52.138;5.424;2023-11-22T04:12:45;14.48;;;5.47;;
71771;SDS011;59606;52.138;5.424;2023-11-22T04:15:12;13.17;;;4.40;;
71771;SDS011;59606;52.138;5.424;2023-11-22T04:17:39;13.63;;;5.43;;
71771;SDS011;59606;52.138;5.424;2023-11-22T04:20:07;12.68;;;4.65;;
71771;SDS011;59606;52.138;5.424;2023-11-22T04:22:36;11.98;;;4.28;;
71771;SDS011;59606;52.138;5.424;2023-11-22T04:25:03;14.60;;;5.70;;
71771;SDS011;59606;52.138;5.424;2023-11-22T04:27:30;11.23;;;5.03;;
71771;SDS011;59606;52.138;5.424;2023-11-22T04:29:57;11.10;;;5.10;;
71771;SDS011;59606;52.138;5.424;2023-11-22T04:32:23;12.38;;;5.53;;
71771;SDS011;59606;52.138;5.424;2023-11-22T04:34:50;10.50;;;5.22;;
71771;SDS011;59606;52.138;5.424;2023-11-22T04:37:17;12.75;;;5.20;;
71771;SDS011;59606;52.138;5.424;2023-11-22T04:39:43;14.17;;;6.03;;
71771;SDS011;59606;52.138;5.424;2023-11-22T04:42:10;12.95;;;4.82;;
71771;SDS011;59606;52.138;5.424;2023-11-22T04:44:36;13.48;;;5.38;;
71771;SDS011;59606;52.138;5.424;2023-11-22T04:47:03;12.20;;;4.93;;
71771;SDS011;59606;52.138;5.424;2023-11-22T04:49:32;13.50;;;5.43;;
71771;SDS011;59606;52.138;5.424;2023-11-22T04:51:58;11.90;;;4.90;;
71771;SDS011;59606;52.138;5.424;2023-11-22T04:54:25;12.02;;;5.15;;
71771;SDS011;59606;52.138;5.424;2023-11-22T04:56:51;13.73;;;5.38;;
71771;SDS011;59606;52.138;5.424;2023-11-22T04:59:18;12.88;;;5.68;;
71771;SDS011;59606;52.138;5.424;2023-11-22T05:01:44;10.95;;;4.35;;
71771;SDS011;59606;52.138;5.424;2023-11-22T05:04:11;10.47;;;4.70;;
71771;SDS011;59606;52.138;5.424;2023-11-22T05:06:38;14.98;;;5.43;;
71771;SDS011;59606;52.138;5.424;2023-11-22T05:09:04;13.00;;;5.60;;
71771;SDS011;59606;52.138;5.424;2023-11-22T05:11:32;15.18;;;5.32;;
71771;SDS011;59606;52.138;5.424;2023-11-22T05:13:58;10.93;;;4.93;;
71771;SDS011;59606;52.138;5.424;2023-11-22T05:16:25;13.40;;;5.13;;
71771;SDS011;59606;52.138;5.424;2023-11-22T05:18:51;14.77;;;5.97;;
71771;SDS011;59606;52.138;5.424;2023-11-22T05:21:18;11.88;;;5.10;;
71771;SDS011;59606;52.138;5.424;2023-11-22T05:23:44;13.07;;;5.13;;
71771;SDS011;59606;52.138;5.424;2023-11-22T05:26:12;15.73;;;6.07;;
71771;SDS011;59606;52.138;5.424;2023-11-22T05:28:38;13.40;;;5.30;;
71771;SDS011;59606;52.138;5.424;2023-11-22T05:31:05;13.25;;;6.35;;
71771;SDS011;59606;52.138;5.424;2023-11-22T05:33:31;11.82;;;4.80;;
71771;SDS011;59606;52.138;5.424;2023-11-22T05:35:58;12.10;;;4.95;;
71771;SDS011;59606;52.138;5.424;2023-11-22T05:38:25;13.35;;;5.07;;
71771;SDS011;59606;52.138;5.424;2023-11-22T05:40:53;14.43;;;5.90;;
71771;SDS011;59606;52.138;5.424;2023-11-22T05:43:19;11.13;;;4.55;;
71771;SDS011;59606;52.138;5.424;2023-11-22T05:45:52;11.63;;;4.85;;
71771;SDS011;59606;52.138;5.424;2023-11-22T05:48:19;11.10;;;4.85;;
71771;SDS011;59606;52.138;5.424;2023-11-22T05:50:46;12.55;;;5.60;;
71771;SDS011;59606;52.138;5.424;2023-11-22T05:53:14;12.97;;;5.07;;
71771;SDS011;59606;52.138;5.424;2023-11-22T05:55:47;13.38;;;5.88;;
71771;SDS011;59606;52.138;5.424;2023-11-22T05:58:15;14.40;;;5.25;;
71771;SDS011;59606;52.138;5.424;2023-11-22T06:00:43;13.68;;;6.00;;
71771;SDS011;59606;52.138;5.424;2023-11-22T06:03:10;13.27;;;5.78;;
71771;SDS011;59606;52.138;5.424;2023-11-22T06:05:37;20.87;;;6.57;;
71771;SDS011;59606;52.138;5.424;2023-11-22T06:08:04;12.75;;;5.57;;
71771;SDS011;59606;52.138;5.424;2023-11-22T06:10:31;13.60;;;5.90;;
71771;SDS011;59606;52.138;5.424;2023-11-22T06:12:57;14.05;;;5.80;;
71771;SDS011;59606;52.138;5.424;2023-11-22T06:15:24;17.20;;;6.88;;
71771;SDS011;59606;52.138;5.424;2023-11-22T06:17:50;16.97;;;7.00;;
71771;SDS011;59606;52.138;5.424;2023-11-22T06:20:17;15.90;;;6.18;;
71771;SDS011;59606;52.138;5.424;2023-11-22T06:22:44;14.93;;;6.32;;
71771;SDS011;59606;52.138;5.424;2023-11-22T06:25:13;15.25;;;5.88;;
71771;SDS011;59606;52.138;5.424;2023-11-22T06:27:40;14.10;;;6.22;;
71771;SDS011;59606;52.138;5.424;2023-11-22T06:30:07;18.80;;;7.07;;
71771;SDS011;59606;52.138;5.424;2023-11-22T06:32:35;16.00;;;7.35;;
71771;SDS011;59606;52.138;5.424;2023-11-22T06:35:02;15.90;;;7.15;;
71771;SDS011;59606;52.138;5.424;2023-11-22T06:37:29;17.27;;;8.00;;
71771;SDS011;59606;52.138;5.424;2023-11-22T06:39:56;19.20;;;7.60;;
71771;SDS011;59606;52.138;5.424;2023-11-22T06:42:23;16.47;;;6.77;;
71771;SDS011;59606;52.138;5.424;2023-11-22T06:44:50;18.60;;;7.75;;
71771;SDS011;59606;52.138;5.424;2023-11-22T06:47:19;16.90;;;6.40;;
71771;SDS011;59606;52.138;5.424;2023-11-22T06:49:46;19.92;;;8.70;;
71771;SDS011;59606;52.138;5.424;2023-11-22T06:52:12;20.40;;;7.25;;
71771;SDS011;59606;52.138;5.424;2023-11-22T06:54:39;17.83;;;7.83;;
71771;SDS011;59606;52.138;5.424;2023-11-22T06:57:05;13.35;;;6.07;;
71771;SDS011;59606;52.138;5.424;2023-11-22T06:59:32;16.08;;;7.20;;
71771;SDS011;59606;52.138;5.424;2023-11-22T07:01:59;15.30;;;6.40;;
71771;SDS011;59606;52.138;5.424;2023-11-22T07:04:25;15.02;;;6.40;;
71771;SDS011;59606;52.138;5.424;2023-11-22T07:06:52;14.53;;;6.00;;
71771;SDS011;59606;52.138;5.424;2023-11-22T07:09:18;17.15;;;6.38;;
71771;SDS011;59606;52.138;5.424;2023-11-22T07:11:45;21.65;;;7.00;;
71771;SDS011;59606;52.138;5.424;2023-11-22T07:14:12;15.65;;;6.30;;
71771;SDS011;59606;52.138;5.424;2023-11-22T07:16:38;15.30;;;6.13;;
71771;SDS011;59606;52.138;5.424;2023-11-22T07:19:05;16.97;;;6.43;;
71771;SDS011;59606;52.138;5.424;2023-11-22T07:21:33;18.92;;;6.90;;
71771;SDS011;59606;52.138;5.424;2023-11-22T07:24:04;18.63;;;7.75;;
71771;SDS011;59606;52.138;5.424;2023-11-22T07:26:33;18.17;;;7.15;;
71771;SDS011;59606;52.138;5.424;2023-11-22T07:28:59;25.88;;;8.45;;
71771;SDS011;59606;52.138;5.424;2023-11-22T07:31:26;18.87;;;7.30;;
71771;SDS011;59606;52.138;5.424;2023-11-22T07:33:53;19.02;;;8.10;;
71771;SDS011;59606;52.138;5.424;2023-11-22T07:36:19;16.08;;;7.68;;
71771;SDS011;59606;52.138;5.424;2023-11-22T07:38:46;18.55;;;8.50;;
71771;SDS011;59606;52.138;5.424;2023-11-22T07:41:14;21.27;;;8.38;;
71771;SDS011;59606;52.138;5.424;2023-11-22T07:43:41;23.23;;;8.97;;
71771;SDS011;59606;52.138;5.424;2023-11-22T07:46:08;18.60;;;7.35;;
71771;SDS011;59606;52.138;5.424;2023-11-22T07:48:39;22.92;;;7.20;;
71771;SDS011;59606;52.138;5.424;2023-11-22T07:51:09;23.38;;;8.07;;
71771;SDS011;59606;52.138;5.424;2023-11-22T07:53:36;18.40;;;7.47;;
71771;SDS011;59606;52.138;5.424;2023-11-22T07:56:02;16.03;;;7.20;;
71771;SDS011;59606;52.138;5.424;2023-11-22T07:58:30;17.48;;;6.40;;
71771;SDS011;59606;52.138;5.424;2023-11-22T08:01:00;17.25;;;7.47;;
71771;SDS011;59606;52.138;5.424;2023-11-22T08:03:31;15.82;;;6.78;;
71771;SDS011;59606;52.138;5.424;2023-11-22T08:05:58;14.93;;;7.00;;
71771;SDS011;59606;52.138;5.424;2023-11-22T08:08:26;19.60;;;6.83;;
71771;SDS011;59606;52.138;5.424;2023-11-22T08:10:52;16.77;;;7.85;;
71771;SDS011;59606;52.138;5.424;2023-11-22T08:13:20;16.20;;;7.45;;
71771;SDS011;59606;52.138;5.424;2023-11-22T08:15:49;17.58;;;7.10;;
71771;SDS011;59606;52.138;5.424;2023-11-22T08:18:15;15.38;;;6.43;;
71771;SDS011;59606;52.138;5.424;2023-11-22T08:20:43;14.97;;;6.17;;
71771;SDS011;59606;52.138;5.424;2023-11-22T08:23:10;21.05;;;7.30;;
71771;SDS011;59606;52.138;5.424;2023-11-22T08:25:39;17.58;;;7.45;;
71771;SDS011;59606;52.138;5.424;2023-11-22T08:28:09;18.85;;;8.13;;
71771;SDS011;59606;52.138;5.424;2023-11-22T08:30:36;17.15;;;7.32;;
71771;SDS011;59606;52.138;5.424;2023-11-22T08:33:03;20.23;;;8.53;;
71771;SDS011;59606;52.138;5.424;2023-11-22T08:35:29;19.25;;;7.72;;
71771;SDS011;59606;52.138;5.424;2023-11-22T08:37:56;18.77;;;7.93;;
71771;SDS011;59606;52.138;5.424;2023-11-22T08:40:24;16.42;;;7.22;;
71771;SDS011;59606;52.138;5.424;2023-11-22T08:42:52;17.42;;;7.38;;
71771;SDS011;59606;52.138;5.424;2023-11-22T08:45:19;21.70;;;7.57;;
71771;SDS011;59606;52.138;5.424;2023-11-22T08:47:45;17.92;;;7.22;;
71771;SDS011;59606;52.138;5.424;2023-11-22T08:50:12;15.98;;;8.13;;
71771;SDS011;59606;52.138;5.424;2023-11-22T08:52:39;18.33;;;7.85;;
71771;SDS011;59606;52.138;5.424;2023-11-22T08:55:08;21.60;;;8.45;;
71771;SDS011;59606;52.138;5.424;2023-11-22T08:57:35;20.13;;;8.83;;
71771;SDS011;59606;52.138;5.424;2023-11-22T09:00:03;18.67;;;8.35;;
71771;SDS011;59606;52.138;5.424;2023-11-22T09:02:36;21.17;;;8.57;;
71771;SDS011;59606;52.138;5.424;2023-11-22T09:05:03;19.45;;;7.95;;
71771;SDS011;59606;52.138;5.424;2023-11-22T09:07:34;23.95;;;7.93;;
71771;SDS011;59606;52.138;5.424;2023-11-22T09:10:04;19.80;;;8.47;;
71771;SDS011;59606;52.138;5.424;2023-11-22T09:12:39;17.25;;;8.15;;
71771;SDS011;59606;52.138;5.424;2023-11-22T09:15:08;19.80;;;7.70;;
71771;SDS011;59606;52.138;5.424;2023-11-22T09:17:39;19.35;;;8.43;;
71771;SDS011;59606;52.138;5.424;2023-11-22T09:20:13;21.17;;;8.18;;
71771;SDS011;59606;52.138;5.424;2023-11-22T09:22:45;19.80;;;8.47;;
71771;SDS011;59606;52.138;5.424;2023-11-22T09:27:43;17.35;;;8.25;;
71771;SDS011;59606;52.138;5.424;2023-11-22T09:30:13;22.98;;;8.80;;
71771;SDS011;59606;52.138;5.424;2023-11-22T09:32:45;17.60;;;7.63;;
71771;SDS011;59606;52.138;5.424;2023-11-22T09:35:14;18.50;;;8.17;;
71771;SDS011;59606;52.138;5.424;2023-11-22T09:37:41;21.25;;;8.15;;
71771;SDS011;59606;52.138;5.424;2023-11-22T09:40:13;17.65;;;7.75;;
71771;SDS011;59606;52.138;5.424;2023-11-22T09:42:44;19.35;;;8.05;;
71771;SDS011;59606;52.138;5.424;2023-11-22T09:45:17;19.45;;;8.63;;
71771;SDS011;59606;52.138;5.424;2023-11-22T09:47:47;20.83;;;9.13;;
71771;SDS011;59606;52.138;5.424;2023-11-22T09:50:17;21.92;;;8.43;;
71771;SDS011;59606;52.138;5.424;2023-11-22T09:52:50;22.10;;;8.45;;
71771;SDS011;59606;52.138;5.424;2023-11-22T09:55:21;19.35;;;8.23;;
71771;SDS011;59606;52.138;5.424;2023-11-22T09:57:51;16.20;;;7.43;;
71771;SDS011;59606;52.138;5.424;2023-11-22T10:00:20;17.43;;;7.33;;
71771;SDS011;59606;52.138;5.424;2023-11-22T10:02:48;17.02;;;8.85;;
71771;SDS011;59606;52.138;5.424;2023-11-22T10:05:16;18.00;;;9.02;;
71771;SDS011;59606;52.138;5.424;2023-11-22T10:07:43;21.38;;;8.07;;
71771;SDS011;59606;52.138;5.424;2023-11-22T10:10:14;21.58;;;7.68;;
71771;SDS011;59606;52.138;5.424;2023-11-22T10:12:44;19.57;;;8.30;;
71771;SDS011;59606;52.138;5.424;2023-11-22T10:15:12;20.17;;;8.23;;
71771;SDS011;59606;52.138;5.424;2023-11-22T10:17:38;18.83;;;9.05;;
71771;SDS011;59606;52.138;5.424;2023-11-22T10:20:05;16.67;;;7.88;;
71771;SDS011;59606;52.138;5.424;2023-11-22T10:22:43;24.00;;;8.77;;
71771;SDS011;59606;52.138;5.424;2023-11-22T10:25:11;20.40;;;8.27;;
71771;SDS011;59606;52.138;5.424;2023-11-22T10:27:39;19.10;;;9.48;;
71771;SDS011;59606;52.138;5.424;2023-11-22T10:30:07;18.85;;;8.10;;
71771;SDS011;59606;52.138;5.424;2023-11-22T10:32:39;21.17;;;8.65;;
71771;SDS011;59606;52.138;5.424;2023-11-22T10:35:06;18.42;;;8.05;;
71771;SDS011;59606;52.138;5.424;2023-11-22T10:37:34;17.33;;;8.53;;
71771;SDS011;59606;52.138;5.424;2023-11-22T10:40:01;18.05;;;8.25;;
71771;SDS011;59606;52.138;5.424;2023-11-22T10:42:32;17.05;;;8.27;;
71771;SDS011;59606;52.138;5.424;2023-11-22T10:44:59;20.02;;;8.00;;
71771;SDS011;59606;52.138;5.424;2023-11-22T10:47:29;16.60;;;7.47;;
71771;SDS011;59606;52.138;5.424;2023-11-22T10:49:57;18.33;;;8.03;;
71771;SDS011;59606;52.138;5.424;2023-11-22T10:52:26;18.38;;;8.27;;
71771;SDS011;59606;52.138;5.424;2023-11-22T10:54:55;18.67;;;7.72;;
71771;SDS011;59606;52.138;5.424;2023-11-22T10:57:31;20.00;;;9.10;;
71771;SDS011;59606;52.138;5.424;2023-11-22T11:00:00;18.05;;;7.70;;
71771;SDS011;59606;52.138;5.424;2023-11-22T11:03:08;18.50;;;7.93;;
71771;SDS011;59606;52.138;5.424;2023-11-22T11:05:31;19.70;;;8.60;;
71771;SDS011;59606;52.138;5.424;2023-11-22T11:08:01;17.45;;;8.23;;
71771;SDS011;59606;52.138;5.424;2023-11-22T11:10:43;19.17;;;7.47;;
71771;SDS011;59606;52.138;5.424;2023-11-22T11:13:13;21.17;;;9.18;;
71771;SDS011;59606;52.138;5.424;2023-11-22T11:15:40;17.23;;;7.80;;
71771;SDS011;59606;52.138;5.424;2023-11-22T11:18:15;21.67;;;9.13;;
71771;SDS011;59606;52.138;5.424;2023-11-22T11:20:52;20.13;;;8.70;;
71771;SDS011;59606;52.138;5.424;2023-11-22T11:23:22;18.42;;;8.45;;
71771;SDS011;59606;52.138;5.424;2023-11-22T11:25:54;18.85;;;8.15;;
71771;SDS011;59606;52.138;5.424;2023-11-22T11:28:25;19.07;;;8.60;;
71771;SDS011;59606;52.138;5.424;2023-11-22T11:30:53;17.35;;;8.32;;
71771;SDS011;59606;52.138;5.424;2023-11-22T11:33:27;20.98;;;8.77;;
71771;SDS011;59606;52.138;5.424;2023-11-22T11:36:00;18.50;;;8.55;;
71771;SDS011;59606;52.138;5.424;2023-11-22T11:38:31;18.60;;;8.30;;
71771;SDS011;59606;52.138;5.424;2023-11-22T11:41:08;17.53;;;7.70;;
71771;SDS011;59606;52.138;5.424;2023-11-22T11:46:13;21.42;;;8.55;;
71771;SDS011;59606;52.138;5.424;2023-11-22T11:48:50;18.15;;;8.25;;
71771;SDS011;59606;52.138;5.424;2023-11-22T11:51:19;18.33;;;8.15;;
71771;SDS011;59606;52.138;5.424;2023-11-22T11:53:48;18.63;;;8.13;;
71771;SDS011;59606;52.138;5.424;2023-11-22T11:56:15;14.63;;;6.93;;
71771;SDS011;59606;52.138;5.424;2023-11-22T11:58:42;19.38;;;8.43;;
71771;SDS011;59606;52.138;5.424;2023-11-22T12:01:13;16.95;;;7.68;;
71771;SDS011;59606;52.138;5.424;2023-11-22T12:03:41;18.20;;;8.10;;
71771;SDS011;59606;52.138;5.424;2023-11-22T12:06:07;16.37;;;7.47;;
71771;SDS011;59606;52.138;5.424;2023-11-22T12:08:34;17.98;;;7.72;;
71771;SDS011;59606;52.138;5.424;2023-11-22T12:11:03;18.67;;;8.23;;
71771;SDS011;59606;52.138;5.424;2023-11-22T12:13:34;17.75;;;7.47;;
71771;SDS011;59606;52.138;5.424;2023-11-22T12:16:04;16.58;;;6.90;;
71771;SDS011;59606;52.138;5.424;2023-11-22T12:18:46;16.77;;;6.73;;
71771;SDS011;59606;52.138;5.424;2023-11-22T12:21:18;16.42;;;7.25;;
71771;SDS011;59606;52.138;5.424;2023-11-22T12:23:46;17.83;;;7.55;;
71771;SDS011;59606;52.138;5.424;2023-11-22T12:26:16;16.00;;;7.68;;
71771;SDS011;59606;52.138;5.424;2023-11-22T12:28:46;16.83;;;7.70;;
71771;SDS011;59606;52.138;5.424;2023-11-22T12:31:28;17.90;;;7.60;;
71771;SDS011;59606;52.138;5.424;2023-11-22T12:33:56;18.10;;;7.50;;
71771;SDS011;59606;52.138;5.424;2023-11-22T12:36:25;16.52;;;7.68;;
71771;SDS011;59606;52.138;5.424;2023-11-22T12:38:52;19.08;;;7.28;;
71771;SDS011;59606;52.138;5.424;2023-11-22T12:41:26;20.88;;;8.30;;
71771;SDS011;59606;52.138;5.424;2023-11-22T12:44:05;19.17;;;8.10;;
71771;SDS011;59606;52.138;5.424;2023-11-22T12:46:50;18.75;;;7.78;;
71771;SDS011;59606;52.138;5.424;2023-11-22T12:49:24;18.25;;;8.40;;
71771;SDS011;59606;52.138;5.424;2023-11-22T12:51:52;17.33;;;7.95;;
71771;SDS011;59606;52.138;5.424;2023-11-22T12:54:20;20.70;;;9.45;;
71771;SDS011;59606;52.138;5.424;2023-11-22T12:56:50;20.67;;;8.97;;
71771;SDS011;59606;52.138;5.424;2023-11-22T12:59:20;18.27;;;9.00;;
71771;SDS011;59606;52.138;5.424;2023-11-22T13:01:48;22.23;;;9.68;;
71771;SDS011;59606;52.138;5.424;2023-11-22T13:04:15;19.83;;;8.70;;
71771;SDS011;59606;52.138;5.424;2023-11-22T13:06:42;17.83;;;8.15;;
71771;SDS011;59606;52.138;5.424;2023-11-22T13:09:09;28.23;;;9.73;;
71771;SDS011;59606;52.138;5.424;2023-11-22T13:11:41;18.17;;;8.32;;
71771;SDS011;59606;52.138;5.424;2023-11-22T13:14:09;18.75;;;7.97;;
71771;SDS011;59606;52.138;5.424;2023-11-22T13:16:36;17.33;;;8.50;;
71771;SDS011;59606;52.138;5.424;2023-11-22T13:19:05;17.48;;;8.05;;
71771;SDS011;59606;52.138;5.424;2023-11-22T13:21:32;16.43;;;7.43;;
71771;SDS011;59606;52.138;5.424;2023-11-22T13:23:59;17.30;;;8.05;;
71771;SDS011;59606;52.138;5.424;2023-11-22T13:26:26;19.75;;;9.63;;
71771;SDS011;59606;52.138;5.424;2023-11-22T13:28:52;19.17;;;8.38;;
71771;SDS011;59606;52.138;5.424;2023-11-22T13:31:21;20.52;;;8.80;;
71771;SDS011;59606;52.138;5.424;2023-11-22T13:33:48;20.20;;;8.73;;
71771;SDS011;59606;52.138;5.424;2023-11-22T13:36:14;19.55;;;8.77;;
71771;SDS011;59606;52.138;5.424;2023-11-22T13:38:41;16.85;;;8.15;;
71771;SDS011;59606;52.138;5.424;2023-11-22T13:41:09;20.80;;;8.45;;
71771;SDS011;59606;52.138;5.424;2023-11-22T13:43:35;18.50;;;8.73;;
71771;SDS011;59606;52.138;5.424;2023-11-22T13:46:02;17.77;;;7.90;;
71771;SDS011;59606;52.138;5.424;2023-11-22T13:48:29;18.02;;;8.48;;
71771;SDS011;59606;52.138;5.424;2023-11-22T13:50:56;19.80;;;9.15;;
71771;SDS011;59606;52.138;5.424;2023-11-22T13:53:26;17.90;;;8.07;;
71771;SDS011;59606;52.138;5.424;2023-11-22T13:55:56;21.38;;;9.18;;
71771;SDS011;59606;52.138;5.424;2023-11-22T13:58:24;17.17;;;8.37;;
71771;SDS011;59606;52.138;5.424;2023-11-22T14:00:51;21.83;;;8.40;;
71771;SDS011;59606;52.138;5.424;2023-11-22T14:03:20;18.75;;;8.35;;
71771;SDS011;59606;52.138;5.424;2023-11-22T14:05:48;17.92;;;8.98;;
71771;SDS011;59606;52.138;5.424;2023-11-22T14:08:14;17.83;;;8.18;;
71771;SDS011;59606;52.138;5.424;2023-11-22T14:10:43;19.90;;;7.70;;
71771;SDS011;59606;52.138;5.424;2023-11-22T14:13:11;17.77;;;7.88;;
71771;SDS011;59606;52.138;5.424;2023-11-22T14:15:38;19.05;;;8.90;;
71771;SDS011;59606;52.138;5.424;2023-11-22T14:18:04;20.05;;;8.63;;
71771;SDS011;59606;52.138;5.424;2023-11-22T14:20:31;20.42;;;9.10;;
71771;SDS011;59606;52.138;5.424;2023-11-22T14:23:01;17.77;;;8.53;;
71771;SDS011;59606;52.138;5.424;2023-11-22T14:25:27;22.10;;;8.82;;
71771;SDS011;59606;52.138;5.424;2023-11-22T14:27:55;18.98;;;8.38;;
71771;SDS011;59606;52.138;5.424;2023-11-22T14:30:23;21.42;;;10.13;;
71771;SDS011;59606;52.138;5.424;2023-11-22T14:32:53;23.13;;;10.07;;
71771;SDS011;59606;52.138;5.424;2023-11-22T14:35:20;22.77;;;10.37;;
71771;SDS011;59606;52.138;5.424;2023-11-22T14:37:46;23.23;;;10.27;;
71771;SDS011;59606;52.138;5.424;2023-11-22T14:40:13;19.85;;;9.50;;
71771;SDS011;59606;52.138;5.424;2023-11-22T14:42:41;24.90;;;10.18;;
71771;SDS011;59606;52.138;5.424;2023-11-22T14:45:08;25.13;;;11.10;;